Time;durP1;ratioP1;P1;durP2;ratioP2;P2;SDS_P1;SDS_P2;PMS_P1;PMS_P2;Temp;Humidity;BMP_temperature;BMP_pressure;BME280_temperature;BME280_humidity;BME280_pressure;Samples;Min_cycle;Max_cycle;Signal;HPM_P1;HPM_P2
2021/05/22 00:01:53;;;;;;;6.50;4.70;;;11.10;99.90;;;;;;4417356;28;653086;-69
2021/05/22 00:04:40;;;;;;;7.57;4.97;;;11.00;99.90;;;;;;4422301;28;653186;-68
2021/05/22 00:07:27;;;;;;;8.07;4.73;;;11.00;99.90;;;;;;4406896;28;652486;-70
2021/05/22 00:10:15;;;;;;;5.60;3.97;;;11.00;99.90;;;;;;4426102;28;652713;-68
2021/05/22 00:13:03;;;;;;;5.70;4.03;;;10.90;99.90;;;;;;4398697;28;654132;-69
2021/05/22 00:15:50;;;;;;;7.93;6.07;;;10.90;99.90;;;;;;4420410;28;654843;-68
2021/05/22 00:18:37;;;;;;;9.23;5.67;;;10.80;99.90;;;;;;4411213;28;653276;-70
2021/05/22 00:21:24;;;;;;;10.30;6.50;;;10.80;99.90;;;;;;4415221;28;653884;-68
2021/05/22 00:24:12;;;;;;;11.00;6.90;;;10.80;99.90;;;;;;4440612;28;655020;-68
2021/05/22 00:27:00;;;;;;;7.63;4.97;;;10.70;99.90;;;;;;4400601;28;654848;-68
2021/05/22 00:29:47;;;;;;;7.97;3.90;;;10.70;99.90;;;;;;4428753;28;654278;-70
2021/05/22 00:32:35;;;;;;;10.10;4.80;;;10.70;99.90;;;;;;4440865;28;653867;-68
2021/05/22 00:35:22;;;;;;;8.43;3.93;;;10.60;99.90;;;;;;4432788;28;655417;-68
2021/05/22 00:38:09;;;;;;;5.47;3.80;;;10.60;99.90;;;;;;4416886;28;652977;-68
2021/05/22 00:40:56;;;;;;;6.87;4.17;;;10.50;99.90;;;;;;4454069;28;653713;-68
2021/05/22 00:43:44;;;;;;;10.50;3.77;;;10.50;99.90;;;;;;4433069;28;653449;-68
2021/05/22 00:46:31;;;;;;;9.25;4.70;;;10.50;99.90;;;;;;4450830;28;654461;-68
2021/05/22 00:49:18;;;;;;;8.00;4.70;;;10.40;99.90;;;;;;4413228;28;653481;-68
2021/05/22 00:52:05;;;;;;;7.73;4.90;;;10.30;99.90;;;;;;4432527;28;654129;-68
2021/05/22 00:54:53;;;;;;;8.97;4.97;;;10.30;99.90;;;;;;4425001;28;653280;-70
2021/05/22 00:57:40;;;;;;;6.10;4.30;;;10.20;99.90;;;;;;4440126;28;653143;-68
2021/05/22 01:00:40;;;;;;;6.22;4.32;;;10.10;99.90;;;;;;4418818;28;653871;-70
2021/05/22 01:03:28;;;;;;;8.90;3.97;;;10.10;99.90;;;;;;4410101;28;653677;-69
2021/05/22 01:06:16;;;;;;;13.50;4.50;;;10.00;99.90;;;;;;4436493;28;654280;-68
2021/05/22 01:09:07;;;;;;;6.82;4.20;;;10.00;99.90;;;;;;4416010;28;654274;-68
2021/05/22 01:11:55;;;;;;;68.30;4.95;;;9.90;99.90;;;;;;4415546;28;654040;-68
2021/05/22 01:14:46;;;;;;;5.30;3.42;;;9.80;99.90;;;;;;4411756;28;653325;-70
2021/05/22 01:17:35;;;;;;;4.97;3.43;;;9.80;99.90;;;;;;4418759;28;652416;-68
2021/05/22 01:20:31;;;;;;;6.40;3.50;;;9.70;99.90;;;;;;4420012;28;652414;-69
2021/05/22 01:23:21;;;;;;;7.13;4.20;;;9.70;99.90;;;;;;4408035;28;652670;-68
2021/05/22 01:26:10;;;;;;;8.57;5.07;;;9.60;99.90;;;;;;4412776;28;652722;-68
2021/05/22 01:28:58;;;;;;;10.43;5.93;;;9.60;99.90;;;;;;4434441;28;652608;-69
2021/05/22 01:31:45;;;;;;;12.60;5.97;;;9.50;99.90;;;;;;4436072;28;654474;-67
2021/05/22 01:34:32;;;;;;;10.07;4.87;;;9.50;99.90;;;;;;4434281;28;653955;-70
2021/05/22 01:37:19;;;;;;;10.70;5.70;;;9.50;99.90;;;;;;4457483;28;653381;-67
2021/05/22 01:40:07;;;;;;;9.10;5.40;;;9.30;99.90;;;;;;4453684;28;653632;-67
2021/05/22 01:42:55;;;;;;;11.73;4.97;;;9.30;99.90;;;;;;4434948;28;653544;-68
2021/05/22 01:45:44;;;;;;;7.63;4.50;;;9.30;99.90;;;;;;4429821;28;654056;-69
2021/05/22 01:48:31;;;;;;;8.50;5.13;;;9.40;99.90;;;;;;4457961;28;652667;-67
2021/05/22 01:51:20;;;;;;;10.03;5.60;;;9.30;99.90;;;;;;4435395;28;652426;-68
2021/05/22 01:54:08;;;;;;;10.60;5.00;;;9.30;99.90;;;;;;4442828;28;653535;-69
2021/05/22 01:56:55;;;;;;;20.00;4.80;;;9.30;99.90;;;;;;4447439;28;654998;-67
2021/05/22 01:59:42;;;;;;;9.50;4.20;;;9.20;99.90;;;;;;4456663;28;652541;-67
2021/05/22 02:02:29;;;;;;;8.07;4.30;;;9.20;99.90;;;;;;4434125;28;653498;-67
2021/05/22 02:05:17;;;;;;;8.33;4.27;;;9.10;99.90;;;;;;4458384;28;652138;-67
2021/05/22 02:08:06;;;;;;;6.17;3.90;;;9.10;99.90;;;;;;4431466;28;652905;-68
2021/05/22 02:10:53;;;;;;;8.93;4.53;;;9.20;99.90;;;;;;4436399;28;653838;-68
2021/05/22 02:13:40;;;;;;;7.63;4.23;;;9.20;99.90;;;;;;4455427;28;655065;-67
2021/05/22 02:16:30;;;;;;;7.63;4.25;;;9.20;99.90;;;;;;4437245;28;653831;-69
2021/05/22 02:19:18;;;;;;;8.43;4.20;;;9.30;99.90;;;;;;4448065;28;653966;-67
2021/05/22 02:22:06;;;;;;;6.87;3.83;;;9.20;99.90;;;;;;4422127;28;654325;-67
2021/05/22 02:24:53;;;;;;;8.53;3.67;;;9.20;99.90;;;;;;4416383;28;653335;-68
2021/05/22 02:27:40;;;;;;;12.47;4.93;;;9.20;99.90;;;;;;4458687;28;653624;-68
2021/05/22 02:30:27;;;;;;;7.17;4.33;;;9.20;99.90;;;;;;4443476;28;654427;-68
2021/05/22 02:33:16;;;;;;;6.77;4.20;;;9.10;99.90;;;;;;4460655;28;653717;-67
2021/05/22 02:36:04;;;;;;;13.60;6.20;;;9.10;99.90;;;;;;4425832;28;653413;-68
2021/05/22 02:38:52;;;;;;;8.87;4.40;;;9.00;99.90;;;;;;4455488;28;654040;-67
2021/05/22 02:41:39;;;;;;;9.53;4.33;;;9.00;99.90;;;;;;4435959;28;654488;-67
2021/05/22 02:44:26;;;;;;;6.53;4.20;;;9.00;99.90;;;;;;4455543;28;653610;-67
2021/05/22 02:47:13;;;;;;;11.03;4.43;;;8.80;99.90;;;;;;4433296;28;653599;-68
2021/05/22 02:50:02;;;;;;;7.77;3.90;;;8.70;99.90;;;;;;4455001;28;656244;-67
2021/05/22 02:52:49;;;;;;;7.20;4.17;;;8.70;99.90;;;;;;4436980;28;653502;-67
2021/05/22 02:55:36;;;;;;;6.87;3.40;;;8.70;99.90;;;;;;4456509;28;653443;-67
2021/05/22 02:58:23;;;;;;;6.57;3.90;;;8.70;99.90;;;;;;4420279;28;653822;-67
2021/05/22 03:01:10;;;;;;;7.07;3.50;;;8.80;99.90;;;;;;4456372;28;654943;-68
2021/05/22 03:04:00;;;;;;;6.83;3.50;;;8.80;99.90;;;;;;4454539;28;653460;-69
2021/05/22 03:06:48;;;;;;;8.57;3.73;;;8.80;99.90;;;;;;4444028;28;653408;-69
2021/05/22 03:09:35;;;;;;;6.77;3.60;;;8.80;99.90;;;;;;4450677;28;653377;-68
2021/05/22 03:12:24;;;;;;;9.02;4.03;;;8.80;99.90;;;;;;4434974;28;653553;-68
2021/05/22 03:15:12;;;;;;;7.17;3.97;;;8.90;99.90;;;;;;4442596;28;653711;-67
2021/05/22 03:17:59;;;;;;;6.73;3.77;;;8.90;99.90;;;;;;4409401;28;654524;-68
2021/05/22 03:20:46;;;;;;;9.77;3.47;;;8.90;99.90;;;;;;4436225;28;653928;-67
2021/05/22 03:23:34;;;;;;;5.63;3.87;;;8.90;99.90;;;;;;4411168;28;653594;-67
2021/05/22 03:26:21;;;;;;;8.33;3.60;;;8.80;99.90;;;;;;4424204;28;654128;-67
2021/05/22 03:29:08;;;;;;;8.67;3.67;;;8.80;99.90;;;;;;4408392;28;653334;-67
2021/05/22 03:31:55;;;;;;;7.40;4.90;;;8.90;99.90;;;;;;4437080;28;655294;-67
2021/05/22 03:34:43;;;;;;;9.53;5.80;;;8.90;99.90;;;;;;4428557;28;653353;-69
2021/05/22 03:37:30;;;;;;;8.57;5.00;;;8.90;99.90;;;;;;4431467;28;653413;-67
2021/05/22 03:40:18;;;;;;;10.35;4.70;;;9.00;99.90;;;;;;4417730;28;653436;-69
2021/05/22 03:43:05;;;;;;;5.10;3.60;;;9.00;99.90;;;;;;4427863;28;655681;-67
2021/05/22 03:45:52;;;;;;;5.07;3.53;;;9.00;99.90;;;;;;4418242;28;653232;-68
2021/05/22 03:48:39;;;;;;;4.67;3.67;;;9.10;99.90;;;;;;4441251;28;653547;-67
2021/05/22 03:51:26;;;;;;;8.73;4.37;;;9.10;99.90;;;;;;4436696;28;653574;-67
2021/05/22 03:54:13;;;;;;;18.30;7.40;;;9.20;99.90;;;;;;4414339;28;654076;-67
2021/05/22 03:57:01;;;;;;;12.93;6.30;;;9.20;99.90;;;;;;4435492;28;654931;-67
2021/05/22 03:59:48;;;;;;;11.53;5.17;;;9.30;99.90;;;;;;4415817;28;654809;-67
2021/05/22 04:02:35;;;;;;;11.87;6.10;;;9.40;99.90;;;;;;4435625;28;655323;-67
2021/05/22 04:05:22;;;;;;;14.57;5.07;;;9.60;99.90;;;;;;4416725;28;654487;-69
2021/05/22 04:08:09;;;;;;;6.07;4.43;;;9.60;99.90;;;;;;4438924;28;654300;-67
2021/05/22 04:10:58;;;;;;;12.93;5.90;;;9.70;99.90;;;;;;4436836;28;653706;-67
2021/05/22 04:13:46;;;;;;;9.53;3.93;;;9.80;99.90;;;;;;4410154;28;654571;-67
2021/05/22 04:16:33;;;;;;;11.80;4.33;;;9.90;99.90;;;;;;4415600;28;653576;-67
2021/05/22 04:19:20;;;;;;;12.83;5.23;;;10.10;99.90;;;;;;4433969;28;654983;-67
2021/05/22 04:22:07;;;;;;;12.63;6.33;;;10.30;99.90;;;;;;4417683;28;655492;-69
2021/05/22 04:24:54;;;;;;;12.80;6.30;;;10.40;99.90;;;;;;4447908;28;655547;-67
2021/05/22 04:27:44;;;;;;;13.10;7.30;;;10.60;99.90;;;;;;4446078;28;655596;-67
2021/05/22 04:30:32;;;;;;;19.50;7.57;;;10.80;99.90;;;;;;4428681;28;655833;-67
2021/05/22 04:33:19;;;;;;;13.47;6.10;;;11.00;99.90;;;;;;4428430;28;655887;-67
2021/05/22 04:36:07;;;;;;;15.03;6.13;;;11.00;99.90;;;;;;4451275;28;656077;-67
2021/05/22 04:38:54;;;;;;;9.97;5.40;;;11.20;99.90;;;;;;4428794;28;656621;-67
2021/05/22 04:41:41;;;;;;;13.48;5.78;;;11.30;99.90;;;;;;4445617;28;655085;-67
2021/05/22 04:44:28;;;;;;;13.20;5.17;;;11.40;99.90;;;;;;4432060;28;655990;-68
2021/05/22 04:47:16;;;;;;;7.80;4.63;;;11.60;99.90;;;;;;4451012;28;657524;-67
2021/05/22 04:50:04;;;;;;;7.40;4.33;;;11.60;99.90;;;;;;4421964;28;654665;-68
2021/05/22 04:52:51;;;;;;;7.40;4.30;;;11.80;99.90;;;;;;4451971;28;654647;-68
2021/05/22 04:55:38;;;;;;;8.77;3.90;;;12.00;99.90;;;;;;4426355;28;654202;-68
2021/05/22 04:58:26;;;;;;;8.03;3.90;;;12.10;99.90;;;;;;4451164;28;655574;-67
2021/05/22 05:01:13;;;;;;;11.10;4.90;;;12.30;99.90;;;;;;4433440;28;654377;-67
2021/05/22 05:04:01;;;;;;;11.17;4.97;;;12.50;99.90;;;;;;4446919;28;656402;-67
2021/05/22 05:06:48;;;;;;;14.87;5.60;;;12.80;99.90;;;;;;4432397;28;656253;-67
2021/05/22 05:09:36;;;;;;;15.53;4.83;;;13.00;99.90;;;;;;4435742;28;656559;-68
2021/05/22 05:12:23;;;;;;;8.30;5.10;;;13.10;99.90;;;;;;4406648;28;655805;-68
2021/05/22 05:15:10;;;;;;;7.40;4.67;;;13.20;99.90;;;;;;4445331;28;655324;-67
2021/05/22 05:17:57;;;;;;;10.40;5.17;;;13.40;99.90;;;;;;4431473;28;654726;-68
2021/05/22 05:20:45;;;;;;;9.53;4.80;;;13.60;99.90;;;;;;4434425;28;656004;-68
2021/05/22 05:23:32;;;;;;;8.70;5.00;;;13.80;99.90;;;;;;4421697;28;654975;-69
2021/05/22 05:26:19;;;;;;;8.60;4.73;;;14.00;99.90;;;;;;4445692;28;655019;-68
2021/05/22 05:29:06;;;;;;;10.90;4.57;;;14.10;99.90;;;;;;4450236;28;654463;-68
2021/05/22 05:31:54;;;;;;;9.97;4.17;;;14.50;99.90;;;;;;4402283;28;655240;-68
2021/05/22 05:34:41;;;;;;;7.40;3.63;;;14.70;99.90;;;;;;4415078;28;655351;-68
2021/05/22 05:37:29;;;;;;;8.93;3.80;;;14.70;99.90;;;;;;4411397;28;654768;-68
2021/05/22 05:40:19;;;;;;;6.00;3.70;;;14.90;99.90;;;;;;4433807;28;654982;-68
2021/05/22 05:43:10;;;;;;;6.87;3.60;;;15.00;99.90;;;;;;4387930;28;655028;-68
2021/05/22 05:45:57;;;;;;;5.67;3.60;;;15.10;99.90;;;;;;4411102;28;654154;-68
2021/05/22 05:48:44;;;;;;;6.50;3.70;;;15.30;99.90;;;;;;4395886;28;654821;-68
2021/05/22 05:51:31;;;;;;;5.00;3.37;;;15.30;99.90;;;;;;4424278;28;654562;-68
2021/05/22 05:54:19;;;;;;;7.20;3.67;;;15.40;99.90;;;;;;4391432;28;654914;-69
2021/05/22 05:57:06;;;;;;;5.50;3.50;;;15.30;99.90;;;;;;4406606;28;654419;-68
2021/05/22 05:59:53;;;;;;;6.83;3.60;;;15.30;99.90;;;;;;4394613;28;654450;-69
2021/05/22 06:02:40;;;;;;;6.07;2.90;;;15.20;99.90;;;;;;4414172;28;655126;-68
2021/05/22 06:05:27;;;;;;;5.20;3.40;;;15.00;99.90;;;;;;4412839;28;655183;-69
2021/05/22 06:08:14;;;;;;;7.77;3.40;;;14.80;99.90;;;;;;4434478;28;654670;-68
2021/05/22 06:11:03;;;;;;;9.83;3.77;;;14.70;99.90;;;;;;4432964;28;654625;-68
2021/05/22 06:13:50;;;;;;;7.65;4.03;;;14.60;99.90;;;;;;4413184;28;654917;-68
2021/05/22 06:16:37;;;;;;;8.47;3.73;;;14.60;99.90;;;;;;4405775;28;654419;-70
2021/05/22 06:19:24;;;;;;;8.10;4.00;;;14.50;99.90;;;;;;4434044;28;654750;-66
2021/05/22 06:22:12;;;;;;;8.23;4.20;;;14.50;99.90;;;;;;4429045;28;655039;-67
2021/05/22 06:24:59;;;;;;;7.67;4.40;;;14.60;99.90;;;;;;4418220;28;654761;-67
2021/05/22 06:27:47;;;;;;;6.57;3.70;;;14.70;99.90;;;;;;4433016;28;654788;-66
2021/05/22 06:30:34;;;;;;;8.40;3.90;;;14.90;99.90;;;;;;4425466;28;655965;-67
2021/05/22 06:33:21;;;;;;;9.90;4.07;;;15.10;99.90;;;;;;4455839;28;654931;-67
2021/05/22 06:36:08;;;;;;;8.40;4.23;;;15.30;99.90;;;;;;4417002;28;654485;-67
2021/05/22 06:38:55;;;;;;;8.10;4.00;;;15.40;99.90;;;;;;4450045;28;655268;-66
2021/05/22 06:41:42;;;;;;;7.03;3.70;;;15.50;99.90;;;;;;4420257;28;654476;-68
2021/05/22 06:44:32;;;;;;;4.20;3.17;;;15.60;99.90;;;;;;4438313;28;655685;-67
2021/05/22 06:47:19;;;;;;;6.93;3.60;;;15.80;99.90;;;;;;4431750;28;654351;-67
2021/05/22 06:50:07;;;;;;;6.13;3.63;;;15.90;99.90;;;;;;4447331;28;655192;-67
2021/05/22 06:52:54;;;;;;;7.10;4.30;;;16.20;99.90;;;;;;4431737;28;655478;-67
2021/05/22 06:55:41;;;;;;;8.97;4.57;;;16.60;99.90;;;;;;4454985;28;655671;-67
2021/05/22 06:58:28;;;;;;;12.03;4.50;;;16.80;99.90;;;;;;4429483;28;654691;-67
2021/05/22 07:01:16;;;;;;;7.20;3.60;;;16.80;99.90;;;;;;4457821;28;655632;-67
2021/05/22 07:04:03;;;;;;;6.00;3.03;;;16.70;99.90;;;;;;4436239;28;654224;-67
2021/05/22 07:06:50;;;;;;;4.87;2.97;;;16.40;99.90;;;;;;4456214;28;653970;-67
2021/05/22 07:09:37;;;;;;;7.60;2.97;;;16.30;99.90;;;;;;4432413;28;654695;-68
2021/05/22 07:12:24;;;;;;;5.10;3.03;;;16.20;99.90;;;;;;4457869;28;655169;-67
2021/05/22 07:15:12;;;;;;;8.00;3.30;;;16.10;99.90;;;;;;4434359;28;654679;-67
2021/05/22 07:18:00;;;;;;;6.00;2.80;;;16.00;99.90;;;;;;4419831;28;654468;-67
2021/05/22 07:20:47;;;;;;;11.60;3.00;;;16.10;99.90;;;;;;4430876;28;654759;-68
2021/05/22 07:23:34;;;;;;;5.07;3.00;;;16.20;99.90;;;;;;4447413;28;655060;-67
2021/05/22 07:26:21;;;;;;;5.82;3.20;;;16.30;99.90;;;;;;4434885;28;654990;-67
2021/05/22 07:29:09;;;;;;;5.18;2.97;;;16.50;99.90;;;;;;4408162;28;654061;-67
2021/05/22 07:31:56;;;;;;;5.87;2.80;;;16.70;99.90;;;;;;4420833;28;654813;-67
2021/05/22 07:34:44;;;;;;;7.80;2.10;;;16.50;99.90;;;;;;4402558;28;654682;-67
2021/05/22 07:37:32;;;;;;;4.80;2.20;;;16.30;99.90;;;;;;4433444;28;654587;-67
2021/05/22 07:40:19;;;;;;;5.50;2.30;;;16.10;99.90;;;;;;4412082;28;654215;-67
2021/05/22 07:43:06;;;;;;;5.07;2.40;;;16.00;99.90;;;;;;4435921;28;655208;-66
2021/05/22 07:45:56;;;;;;;3.93;2.33;;;16.10;99.90;;;;;;4417945;28;654681;-67
2021/05/22 07:48:43;;;;;;;4.77;2.20;;;16.30;99.90;;;;;;4396426;28;654648;-66
2021/05/22 07:51:31;;;;;;;3.27;2.10;;;16.40;99.90;;;;;;4436812;28;655271;-67
2021/05/22 07:54:18;;;;;;;8.63;2.70;;;16.60;99.90;;;;;;4419053;28;654729;-67
2021/05/22 07:57:07;;;;;;;6.60;2.30;;;16.70;99.90;;;;;;4432147;28;655406;-66
2021/05/22 07:59:54;;;;;;;6.53;2.60;;;16.50;99.90;;;;;;4406217;28;654627;-67
2021/05/22 08:02:42;;;;;;;3.43;2.47;;;16.60;99.90;;;;;;4436879;28;655471;-67
2021/05/22 08:05:29;;;;;;;7.07;2.60;;;16.70;99.90;;;;;;4417432;28;655043;-67
2021/05/22 08:08:17;;;;;;;6.67;2.50;;;16.70;99.90;;;;;;4435255;28;655358;-66
2021/05/22 08:11:03;;;;;;;5.97;2.97;;;16.40;99.90;;;;;;4417460;28;655277;-67
2021/05/22 08:13:50;;;;;;;3.87;2.50;;;16.30;99.90;;;;;;4418146;28;654371;-67
2021/05/22 08:16:38;;;;;;;7.97;2.83;;;16.10;99.90;;;;;;4411285;28;654677;-68
2021/05/22 08:19:25;;;;;;;6.23;2.60;;;16.00;99.90;;;;;;4428393;28;655227;-66
2021/05/22 08:22:12;;;;;;;5.70;2.60;;;15.90;99.90;;;;;;4436287;28;654200;-68
2021/05/22 08:25:00;;;;;;;5.63;2.60;;;15.80;99.90;;;;;;4444559;28;654676;-66
2021/05/22 08:27:49;;;;;;;5.63;2.50;;;15.80;99.90;;;;;;4436640;28;654753;-68
2021/05/22 08:30:37;;;;;;;5.00;2.23;;;15.70;99.90;;;;;;4447238;28;655228;-67
2021/05/22 08:33:24;;;;;;;6.30;3.00;;;15.60;99.90;;;;;;4433697;28;655381;-67
2021/05/22 08:36:12;;;;;;;5.03;2.53;;;15.70;99.90;;;;;;4452774;28;654651;-66
2021/05/22 08:38:59;;;;;;;5.40;2.57;;;15.60;99.90;;;;;;4433715;28;654513;-67
2021/05/22 08:41:47;;;;;;;8.47;3.00;;;15.60;99.90;;;;;;4454181;28;655365;-67
2021/05/22 08:44:38;;;;;;;7.97;3.20;;;15.50;99.90;;;;;;4429378;28;654935;-66
2021/05/22 08:47:25;;;;;;;7.80;3.00;;;15.50;99.90;;;;;;4423502;28;654987;-67
2021/05/22 08:50:13;;;;;;;78.43;4.73;;;15.30;99.90;;;;;;4431451;28;654970;-67
2021/05/22 08:53:00;;;;;;;8.30;3.30;;;15.10;99.90;;;;;;4454952;28;656146;-67
2021/05/22 08:55:47;;;;;;;5.17;3.13;;;14.90;99.90;;;;;;4438179;28;654338;-67
2021/05/22 08:58:45;;;;;;;9.00;3.33;;;14.80;99.90;;;;;;4465791;28;654979;-66
2021/05/22 09:01:32;;;;;;;6.33;3.57;;;14.60;99.90;;;;;;4429959;28;654653;-68
2021/05/22 09:04:19;;;;;;;7.63;4.07;;;14.50;99.90;;;;;;4458297;28;655143;-66
2021/05/22 09:07:06;;;;;;;6.32;3.70;;;14.20;99.90;;;;;;4454272;28;654880;-66
2021/05/22 09:09:54;;;;;;;8.37;3.70;;;13.80;99.90;;;;;;4431046;28;654461;-67
2021/05/22 09:12:42;;;;;;;7.97;4.17;;;13.50;99.90;;;;;;4453688;28;655294;-66
2021/05/22 09:15:31;;;;;;;9.37;3.90;;;13.30;99.90;;;;;;4431101;28;655910;-67
2021/05/22 09:18:18;;;;;;;11.03;4.80;;;13.10;99.90;;;;;;4434597;28;654338;-67
2021/05/22 09:21:06;;;;;;;13.93;4.40;;;12.90;99.90;;;;;;4452735;28;656065;-67
2021/05/22 09:23:58;;;;;;;12.03;5.07;;;12.80;99.90;;;;;;4431906;28;655608;-67
2021/05/22 09:26:45;;;;;;;8.27;4.87;;;12.60;99.90;;;;;;4429911;28;655903;-67
2021/05/22 09:29:32;;;;;;;9.98;5.03;;;12.60;99.90;;;;;;4439373;28;654428;-68
2021/05/22 09:32:20;;;;;;;10.23;5.53;;;12.40;99.90;;;;;;4457699;28;654954;-67
2021/05/22 09:35:08;;;;;;;13.83;6.17;;;12.40;99.90;;;;;;4429317;28;655283;-69
2021/05/22 09:37:58;;;;;;;13.10;7.53;;;12.20;99.90;;;;;;4434700;28;656271;-67
2021/05/22 09:40:45;;;;;;;12.67;8.07;;;12.20;99.90;;;;;;4412041;28;657037;-67
2021/05/22 09:43:32;;;;;;;16.63;8.37;;;12.00;99.90;;;;;;4425307;28;655550;-68
2021/05/22 09:46:19;;;;;;;14.27;7.50;;;11.90;99.90;;;;;;4439013;28;655357;-67
2021/05/22 09:49:08;;;;;;;17.08;8.00;;;11.90;99.90;;;;;;4434999;28;655831;-67
2021/05/22 09:51:55;;;;;;;13.63;9.10;;;11.80;99.90;;;;;;4411730;28;655995;-67
2021/05/22 09:54:43;;;;;;;17.73;9.63;;;11.80;99.90;;;;;;4416071;28;655610;-69
2021/05/22 09:57:44;;;;;;;11.27;7.37;;;11.90;99.90;;;;;;4434571;28;656272;-67
2021/05/22 10:00:31;;;;;;;14.47;6.03;;;11.70;99.90;;;;;;4410933;28;656191;-67
2021/05/22 10:03:23;;;;;;;11.00;6.27;;;11.60;99.90;;;;;;4415818;28;655613;-68
2021/05/22 10:06:12;;;;;;;11.77;6.97;;;11.50;99.90;;;;;;4411542;28;656832;-67
2021/05/22 10:09:10;;;;;;;11.63;6.77;;;11.50;99.90;;;;;;4415618;28;656380;-67
2021/05/22 10:12:04;;;;;;;14.57;7.30;;;11.40;99.90;;;;;;4404825;28;655846;-68
2021/05/22 10:14:51;;;;;;;11.83;6.40;;;11.40;99.90;;;;;;4411640;28;655657;-66
2021/05/22 10:17:39;;;;;;;15.33;7.43;;;11.30;99.90;;;;;;4415140;28;655440;-67
2021/05/22 10:20:26;;;;;;;12.00;6.20;;;11.40;99.90;;;;;;4434190;28;656073;-67
2021/05/22 10:23:14;;;;;;;12.50;6.40;;;11.40;99.90;;;;;;4413978;28;655742;-67
2021/05/22 10:26:01;;;;;;;9.60;5.70;;;11.50;99.90;;;;;;4431577;28;654935;-67
2021/05/22 10:28:48;;;;;;;9.57;5.87;;;11.50;99.90;;;;;;4416934;28;654237;-67
2021/05/22 10:31:39;;;;;;;10.33;6.20;;;11.50;99.90;;;;;;4437661;28;655739;-66
2021/05/22 10:34:26;;;;;;;11.90;7.03;;;11.40;99.90;;;;;;4418414;28;655353;-67
2021/05/22 10:37:14;;;;;;;13.67;7.53;;;11.50;99.90;;;;;;4404705;28;655337;-67
2021/05/22 10:40:02;;;;;;;12.70;7.43;;;11.60;99.90;;;;;;4437358;28;655304;-67
2021/05/22 10:42:55;;;;;;;12.53;7.20;;;11.60;99.90;;;;;;4418929;28;657003;-67
2021/05/22 10:45:42;;;;;;;10.23;6.23;;;11.80;99.90;;;;;;4414461;28;655189;-66
2021/05/22 10:48:59;;;;;;;14.33;6.37;;;11.90;99.90;;;;;;4417494;28;655434;-67
2021/05/22 10:51:46;;;;;;;11.80;5.70;;;12.00;99.90;;;;;;4389464;28;655349;-67
2021/05/22 10:54:47;;;;;;;8.90;5.20;;;12.10;99.90;;;;;;4418422;28;655619;-66
2021/05/22 10:58:12;;;;;;;8.83;4.87;;;12.10;99.90;;;;;;4392608;28;654800;-66
2021/05/22 11:01:31;;;;;;;8.70;5.63;;;12.20;99.90;;;;;;4414031;28;655544;-66
2021/05/22 11:04:36;;;;;;;10.13;6.03;;;12.20;99.90;;;;;;4392712;28;655164;-67
2021/05/22 11:07:24;;;;;;;7.87;4.93;;;12.10;99.90;;;;;;4390690;28;655625;-66
2021/05/22 11:10:11;;;;;;;8.67;4.30;;;12.10;99.90;;;;;;4438264;28;654875;-66
2021/05/22 11:12:59;;;;;;;8.03;4.20;;;12.10;99.90;;;;;;4418956;28;655214;-67
2021/05/22 11:15:50;;;;;;;7.20;3.40;;;12.00;99.90;;;;;;4438060;28;654523;-66
2021/05/22 11:19:02;;;;;;;4.80;3.27;;;12.00;99.90;;;;;;4404181;28;654567;-68
2021/05/22 11:21:51;;;;;;;5.67;2.33;;;11.80;99.90;;;;;;4411052;28;654645;-66
2021/05/22 11:24:59;;;;;;;3.83;1.83;;;11.60;99.90;;;;;;4419060;28;654480;-66
2021/05/22 11:28:00;;;;;;;5.37;1.67;;;11.30;99.90;;;;;;4414949;28;654493;-65
2021/05/22 11:30:55;;;;;;;3.20;1.92;;;11.30;99.90;;;;;;4411303;28;655107;-68
2021/05/22 11:33:42;;;;;;;9.63;2.50;;;11.40;99.90;;;;;;4407840;28;654679;-68
2021/05/22 11:36:29;;;;;;;3.35;1.80;;;11.40;99.90;;;;;;4441854;28;655124;-66
2021/05/22 11:39:40;;;;;;;2.83;1.60;;;11.40;99.90;;;;;;4437238;28;654668;-65
2021/05/22 11:42:31;;;;;;;4.33;1.93;;;11.50;99.90;;;;;;4395866;28;654696;-67
2021/05/22 11:45:18;;;;;;;3.27;1.80;;;11.40;99.90;;;;;;4418438;28;654718;-66
2021/05/22 11:48:24;;;;;;;4.38;2.00;;;11.40;99.90;;;;;;4438622;28;655674;-66
2021/05/22 11:51:13;;;;;;;3.47;1.80;;;11.50;99.90;;;;;;4412803;28;654489;-66
2021/05/22 11:54:01;;;;;;;4.73;2.80;;;11.50;99.90;;;;;;4418211;28;655356;-66
2021/05/22 11:56:48;;;;;;;6.30;2.67;;;11.50;99.90;;;;;;4418112;28;654273;-66
2021/05/22 11:59:38;;;;;;;5.70;3.10;;;11.60;99.90;;;;;;4439655;28;655084;-66
2021/05/22 12:02:38;;;;;;;4.27;2.70;;;11.60;99.90;;;;;;4414400;28;655155;-66
2021/05/22 12:05:36;;;;;;;5.80;2.97;;;11.70;99.90;;;;;;4414099;28;654780;-66
2021/05/22 12:08:27;;;;;;;4.73;3.20;;;11.80;99.90;;;;;;4391515;28;655527;-66
2021/05/22 12:11:15;;;;;;;7.10;3.60;;;11.80;99.90;;;;;;4418087;28;655016;-66
2021/05/22 12:14:03;;;;;;;5.50;3.60;;;11.80;99.90;;;;;;4421942;28;654160;-67
2021/05/22 12:16:59;;;;;;;5.53;3.83;;;11.80;99.90;;;;;;4438572;28;655010;-66
2021/05/22 12:19:46;;;;;;;6.67;3.93;;;11.90;99.90;;;;;;4413730;28;654865;-66
2021/05/22 12:22:34;;;;;;;8.53;4.23;;;12.00;99.90;;;;;;4418243;28;654788;-66
2021/05/22 12:25:22;;;;;;;7.93;3.80;;;11.80;99.90;;;;;;4406782;28;654906;-66
2021/05/22 12:28:09;;;;;;;7.67;4.77;;;11.70;99.90;;;;;;4384428;28;654214;-67
2021/05/22 12:30:58;;;;;;;7.83;4.50;;;11.70;99.90;;;;;;4402009;28;654958;-66
2021/05/22 12:33:58;;;;;;;6.93;4.10;;;11.90;99.90;;;;;;4392216;28;655326;-66
2021/05/22 12:37:00;;;;;;;7.27;3.80;;;12.10;99.90;;;;;;4378923;28;654622;-66
2021/05/22 12:39:49;;;;;;;6.37;2.97;;;12.30;99.90;;;;;;4371549;28;654749;-67
2021/05/22 12:42:37;;;;;;;6.80;2.97;;;12.40;99.90;;;;;;4385546;28;654428;-65
2021/05/22 12:45:24;;;;;;;7.23;2.70;;;12.60;99.90;;;;;;4362632;28;655360;-66
2021/05/22 12:48:24;;;;;;;6.03;3.67;;;12.90;99.90;;;;;;4382137;28;655067;-66
2021/05/22 12:51:18;;;;;;;5.50;2.53;;;13.10;99.90;;;;;;4392510;28;654645;-67
2021/05/22 12:54:45;;;;;;;6.50;3.10;;;13.40;99.90;;;;;;4394841;28;654193;-66
2021/05/22 13:08:44;;;;;;;4.23;2.33;;;14.90;99.90;;;;;;4270039;29;654384;-65
2021/05/22 13:11:31;;;;;;;5.80;2.20;;;14.50;99.90;;;;;;4314452;29;654845;-66
2021/05/22 13:14:18;;;;;;;6.13;2.77;;;13.80;99.90;;;;;;4296467;28;654484;-64
2021/05/22 13:17:05;;;;;;;15.20;2.33;;;13.40;99.90;;;;;;4314465;29;655165;-64
2021/05/22 13:19:53;;;;;;;4.70;2.70;;;13.50;99.90;;;;;;4293349;29;655624;-64
2021/05/22 13:22:40;;;;;;;4.47;2.63;;;13.60;99.90;;;;;;4315626;28;655168;-64
2021/05/22 13:25:31;;;;;;;5.97;2.90;;;13.50;99.90;;;;;;4329556;28;655023;-65
2021/05/22 13:28:22;;;;;;;4.60;2.53;;;14.10;99.90;;;;;;4327901;28;654492;-65
2021/05/22 13:31:11;;;;;;;2.97;2.00;;;14.10;99.90;;;;;;4329557;28;654464;-64
2021/05/22 13:34:03;;;;;;;5.07;2.30;;;14.20;99.90;;;;;;4341477;28;654503;-64
2021/05/22 13:36:51;;;;;;;4.70;2.80;;;14.30;99.90;;;;;;4393332;28;655230;-64
2021/05/22 13:39:38;;;;;;;5.93;2.80;;;14.60;99.90;;;;;;4397991;28;654917;-65
2021/05/22 13:42:26;;;;;;;5.93;2.20;;;14.60;99.90;;;;;;4415989;28;655092;-64
2021/05/22 13:45:14;;;;;;;6.83;2.80;;;14.50;99.90;;;;;;4398338;28;654859;-65
2021/05/22 13:48:01;;;;;;;5.70;2.90;;;14.50;99.90;;;;;;4416762;28;654601;-64
2021/05/22 13:50:48;;;;;;;8.47;3.03;;;14.30;99.90;;;;;;4400230;28;654750;-65
2021/05/22 13:53:36;;;;;;;10.37;3.33;;;14.10;99.90;;;;;;4429120;28;655272;-64
2021/05/22 13:56:23;;;;;;;5.43;3.03;;;14.10;99.90;;;;;;4400462;28;655576;-65
2021/05/22 13:59:11;;;;;;;8.03;3.00;;;14.00;99.90;;;;;;4440848;28;655886;-64
2021/05/22 14:01:58;;;;;;;9.50;2.97;;;13.80;99.90;;;;;;4417978;28;654481;-66
2021/05/22 14:04:45;;;;;;;7.00;2.80;;;13.50;99.90;;;;;;4441158;28;655459;-65
2021/05/22 14:07:32;;;;;;;9.67;3.37;;;13.40;99.90;;;;;;4437115;28;655649;-68
2021/05/22 14:10:19;;;;;;;5.57;3.50;;;13.10;99.90;;;;;;4444291;28;654777;-66
2021/05/22 14:13:06;;;;;;;5.35;3.03;;;13.00;99.90;;;;;;4422870;28;654501;-65
2021/05/22 14:15:54;;;;;;;5.83;2.97;;;12.90;99.90;;;;;;4402518;28;654537;-64
2021/05/22 14:18:41;;;;;;;7.60;3.77;;;12.90;99.90;;;;;;4422576;28;654599;-65
2021/05/22 14:21:28;;;;;;;6.35;3.13;;;13.00;99.90;;;;;;4420045;28;654638;-66
2021/05/22 14:24:15;;;;;;;5.37;2.53;;;13.10;99.90;;;;;;4426080;28;655765;-65
2021/05/22 14:27:02;;;;;;;21.13;8.40;;;13.20;99.90;;;;;;4402412;28;654944;-66
2021/05/22 14:29:49;;;;;;;7.00;3.47;;;13.40;99.90;;;;;;4424115;28;656639;-66
2021/05/22 14:32:37;;;;;;;6.60;2.97;;;13.60;99.90;;;;;;4421266;28;654584;-66
2021/05/22 14:35:24;;;;;;;4.10;2.70;;;13.80;99.90;;;;;;4402253;28;655627;-64
2021/05/22 14:38:11;;;;;;;4.23;2.70;;;13.90;99.90;;;;;;4420793;28;654274;-65